Time;durP1;ratioP1;P1;durP2;ratioP2;P2;SDS_P1;SDS_P2;PMS_P1;PMS_P2;Temp;Humidity;BMP_temperature;BMP_pressure;BME280_temperature;BME280_humidity;BME280_pressure;Samples;Min_cycle;Max_cycle;Signal;HPM_P1;HPM_P2
2022/06/02 00:02:18;;;;;;;2.93;2.80;;;;;;;9.89;88.97;100566.56;5041274;28;20241;-75
2022/06/02 00:04:55;;;;;;;3.40;3.10;;;;;;;9.83;88.67;100569.25;5051780;28;20711;-75
2022/06/02 00:07:43;;;;;;;3.57;3.27;;;;;;;9.86;88.94;100569.19;5052134;28;20194;-74
2022/06/02 00:10:26;;;;;;;3.40;2.90;;;;;;;9.89;89.08;100563.06;5051818;28;20281;-75
2022/06/02 00:12:59;;;;;;;2.93;2.83;;;;;;;9.89;88.91;100573.50;5051894;28;20299;-75
2022/06/02 00:15:29;;;;;;;3.07;2.87;;;;;;;9.82;88.34;100593.59;5051950;28;20254;-75
2022/06/02 00:18:05;;;;;;;3.13;2.93;;;;;;;9.87;88.72;100597.00;5051985;28;20596;-75
2022/06/02 00:20:38;;;;;;;3.27;3.03;;;;;;;9.81;88.48;100606.63;5051648;28;20191;-75
2022/06/02 00:23:17;;;;;;;3.13;2.93;;;;;;;9.81;88.69;100609.25;5051636;28;20232;-75
2022/06/02 00:25:50;;;;;;;3.77;3.47;;;;;;;9.84;88.40;100617.03;5051487;28;20974;-75
2022/06/02 00:28:29;;;;;;;3.87;3.67;;;;;;;9.78;88.22;100636.22;5051586;28;20211;-75
2022/06/02 00:31:01;;;;;;;3.20;2.90;;;;;;;9.74;88.71;100629.31;5051144;28;20617;-75
2022/06/02 00:33:37;;;;;;;2.87;2.63;;;;;;;9.78;88.77;100622.31;5051892;28;20197;-75
2022/06/02 00:36:11;;;;;;;3.97;3.77;;;;;;;9.75;88.68;100631.03;5050798;28;20209;-75
2022/06/02 00:38:40;;;;;;;3.50;3.30;;;;;;;9.56;88.64;100634.75;5051447;28;20216;-75
2022/06/02 00:41:16;;;;;;;4.27;3.97;;;;;;;9.44;89.48;100620.97;5051307;28;20411;-75
2022/06/02 00:44:03;;;;;;;4.70;3.73;;;;;;;9.51;89.36;100608.75;5051234;28;20241;-76
2022/06/02 00:46:50;;;;;;;5.00;4.70;;;;;;;9.45;89.63;100603.59;5051496;28;20257;-76
2022/06/02 00:49:21;;;;;;;4.37;4.07;;;;;;;9.46;89.85;100600.97;5051255;28;20656;-76
2022/06/02 00:52:00;;;;;;;3.93;3.63;;;;;;;9.50;89.72;100599.22;5051198;28;20218;-75
2022/06/02 00:57:32;;;;;;;4.17;3.87;;;;;;;9.49;89.58;100627.03;5052671;28;20211;-75
2022/06/02 01:00:12;;;;;;;4.13;3.83;;;;;;;9.44;89.73;100617.53;5055044;28;20216;-75
2022/06/02 01:02:47;;;;;;;6.40;6.00;;;;;;;9.27;90.37;100610.75;5054941;28;20229;-75
2022/06/02 01:05:16;;;;;;;4.70;4.40;;;;;;;9.34;90.50;100603.75;5055286;28;20236;-75
2022/06/02 01:07:54;;;;;;;6.17;5.77;;;;;;;9.32;90.12;100615.91;5055392;28;20278;-75
2022/06/02 01:10:38;;;;;;;4.73;4.33;;;;;;;9.37;90.19;100623.69;5054757;28;20702;-75
2022/06/02 01:13:29;;;;;;;5.93;5.53;;;;;;;9.25;90.17;100635.94;5055153;28;20199;-75
2022/06/02 01:16:07;;;;;;;4.27;3.97;;;;;;;9.31;90.25;100622.84;5054859;28;20259;-75
2022/06/02 01:18:47;;;;;;;4.60;4.20;;;;;;;9.36;89.85;100640.19;5054937;28;20211;-75
2022/06/02 01:21:56;;;;;;;4.27;3.97;;;;;;;9.34;89.76;100633.25;5054845;28;20203;-75
2022/06/02 01:25:02;;;;;;;6.27;5.87;;;;;;;9.26;89.82;100650.72;5007601;28;20233;-75
2022/06/02 01:27:57;;;;;;;6.00;5.50;;;;;;;9.21;90.51;100625.56;5054786;28;20235;-75
2022/06/02 01:30:52;;;;;;;8.60;7.80;;;;;;;9.10;90.54;100615.28;5054404;28;20211;-75
2022/06/02 01:33:28;;;;;;;6.80;6.20;;;;;;;9.04;91.67;100607.50;5054722;28;20204;-75
2022/06/02 01:36:05;;;;;;;7.00;6.50;;;;;;;9.03;92.31;100582.38;5053936;28;20574;-75
2022/06/02 01:38:41;;;;;;;9.63;8.93;;;;;;;9.05;92.08;100588.41;5054338;28;20187;-75
2022/06/02 01:41:19;;;;;;;6.60;6.10;;;;;;;9.08;91.86;100589.25;5054306;28;20635;-75
2022/06/02 01:43:55;;;;;;;6.77;6.37;;;;;;;9.11;91.38;100599.63;5054425;28;20229;-75
2022/06/02 01:46:33;;;;;;;7.47;6.97;;;;;;;9.09;91.58;100608.34;5054502;28;20207;-75
2022/06/02 01:49:08;;;;;;;9.07;8.40;;;;;;;9.09;92.10;100597.91;5054352;28;20636;-75
2022/06/02 01:51:45;;;;;;;7.03;6.43;;;;;;;9.11;91.76;100607.44;5054328;28;20228;-75
2022/06/02 01:54:29;;;;;;;7.13;6.50;;;;;;;9.10;91.13;100621.34;5053897;28;20232;-76
2022/06/02 01:57:13;;;;;;;7.37;6.80;;;;;;;9.11;90.83;100636.06;5054465;28;20237;-76
2022/06/02 01:59:53;;;;;;;7.07;6.57;;;;;;;9.13;91.03;100636.94;5053954;28;20218;-76
2022/06/02 02:02:28;;;;;;;10.13;9.33;;;;;;;9.01;91.25;100631.00;5054107;28;20601;-76
2022/06/02 02:05:13;;;;;;;10.33;9.40;;;;;;;9.05;91.97;100614.44;5053635;28;20259;-76
2022/06/02 02:07:49;;;;;;;10.13;9.43;;;;;;;9.00;92.32;100609.31;5054122;28;20212;-76
2022/06/02 02:10:27;;;;;;;8.67;8.07;;;;;;;9.03;92.40;100617.06;5052702;28;20211;-77
2022/06/02 02:13:03;;;;;;;11.27;10.03;;;;;;;8.94;92.32;100618.03;5053668;28;20204;-77
2022/06/02 02:15:42;;;;;;;11.00;10.17;;;;;;;8.95;91.84;100624.94;5054045;28;20231;-76
2022/06/02 02:18:20;;;;;;;10.70;9.97;;;;;;;9.01;91.81;100625.78;5053800;28;20201;-77
2022/06/02 02:21:05;;;;;;;12.13;11.03;;;;;;;8.98;92.13;100623.19;5053350;28;20197;-77
2022/06/02 02:23:39;;;;;;;10.43;9.70;;;;;;;9.02;92.26;100625.78;5053830;28;20849;-77
2022/06/02 02:26:14;;;;;;;10.73;9.77;;;;;;;8.95;92.42;100618.88;5053719;28;20239;-75
2022/06/02 02:28:53;;;;;;;12.20;11.30;;;;;;;9.01;92.59;100612.75;5053667;28;20195;-75
2022/06/02 02:31:33;;;;;;;10.60;9.87;;;;;;;9.06;92.35;100611.84;5050058;28;20193;-76
2022/06/02 02:34:11;;;;;;;11.10;10.23;;;;;;;9.08;92.63;100620.50;5033729;28;20280;-75
2022/06/02 02:36:48;;;;;;;11.50;10.77;;;;;;;9.14;92.09;100624.78;5033010;28;20212;-75
2022/06/02 02:39:20;;;;;;;11.00;10.10;;;;;;;9.14;92.02;100636.06;5033278;28;20225;-75
2022/06/02 02:41:52;;;;;;;10.97;10.17;;;;;;;9.15;91.63;100644.72;5033465;28;20272;-75
2022/06/02 02:44:26;;;;;;;9.87;9.10;;;;;;;9.16;90.98;100654.28;5033498;28;20238;-75
2022/06/02 02:46:58;;;;;;;10.73;9.93;;;;;;;9.13;90.94;100669.94;5033536;28;20199;-75
2022/06/02 02:49:33;;;;;;;10.93;10.23;;;;;;;9.09;91.13;100665.63;5032837;28;20667;-75
2022/06/02 02:52:06;;;;;;;11.87;11.07;;;;;;;9.05;92.07;100650.91;5032887;28;20206;-75
2022/06/02 02:54:38;;;;;;;10.57;9.77;;;;;;;9.05;91.09;100663.94;5033441;28;20223;-75
2022/06/02 02:57:11;;;;;;;11.27;10.57;;;;;;;9.06;91.06;100665.66;5032976;28;20192;-75
2022/06/02 02:59:46;;;;;;;11.93;11.13;;;;;;;9.04;91.03;100673.50;5039223;28;20208;-75
2022/06/02 03:02:26;;;;;;;13.47;12.47;;;;;;;9.04;91.41;100656.97;5052935;28;20248;-75
2022/06/02 03:05:10;;;;;;;12.13;11.13;;;;;;;9.09;91.37;100666.47;5052759;28;20235;-75
2022/06/02 03:07:36;;;;;;;11.47;10.67;;;;;;;9.07;91.41;100663.03;5053039;28;20210;-75
2022/06/02 03:10:11;;;;;;;13.37;12.27;;;;;;;9.07;92.06;100665.63;5052720;28;20212;-75
2022/06/02 03:12:57;;;;;;;11.83;11.00;;;;;;;9.07;91.83;100649.16;5053062;28;20186;-75
2022/06/02 03:15:32;;;;;;;12.07;11.07;;;;;;;9.08;91.59;100675.19;5052804;28;20644;-75
2022/06/02 03:18:13;;;;;;;10.60;9.90;;;;;;;9.08;90.84;100676.94;5052704;28;20633;-75
2022/06/02 03:20:51;;;;;;;13.17;12.17;;;;;;;8.97;91.60;100674.41;5051969;28;20202;-75
2022/06/02 03:23:42;;;;;;;13.37;12.37;;;;;;;9.02;92.34;100656.13;5052839;28;20268;-75
2022/06/02 03:26:18;;;;;;;11.70;10.90;;;;;;;9.03;91.61;100658.72;5052707;28;20245;-75
2022/06/02 03:28:57;;;;;;;11.60;10.63;;;;;;;9.02;91.16;100672.63;5052423;28;20211;-75
2022/06/02 03:31:32;;;;;;;11.07;9.97;;;;;;;9.02;91.53;100683.06;5049628;28;20195;-74
2022/06/02 03:34:11;;;;;;;12.37;11.47;;;;;;;8.95;90.67;100694.38;5052628;28;20224;-75
2022/06/02 03:36:51;;;;;;;11.90;11.07;;;;;;;9.00;91.72;100686.53;5051685;28;20216;-75
2022/06/02 03:39:29;;;;;;;15.73;14.53;;;;;;;8.94;92.07;100680.50;5051977;28;20215;-75
2022/06/02 03:42:12;;;;;;;12.50;11.60;;;;;;;9.02;91.97;100671.75;5052107;28;20623;-75
2022/06/02 03:44:52;;;;;;;16.63;15.33;;;;;;;8.93;93.38;100649.28;5052068;28;20227;-75
2022/06/02 03:47:43;;;;;;;14.80;13.60;;;;;;;9.00;93.14;100645.75;5052105;28;20542;-75
2022/06/02 03:50:33;;;;;;;14.63;13.43;;;;;;;9.01;93.36;100639.66;5052189;28;20256;-75
2022/06/02 03:53:19;;;;;;;13.67;12.57;;;;;;;9.09;93.57;100637.84;5052216;28;20312;-75
2022/06/02 03:55:57;;;;;;;12.90;11.90;;;;;;;9.11;93.02;100648.25;5052170;28;20268;-75
2022/06/02 03:58:38;;;;;;;14.77;13.47;;;;;;;9.08;93.04;100656.09;5051812;28;20934;-75
2022/06/02 04:01:06;;;;;;;15.90;14.60;;;;;;;9.15;93.25;100653.41;5051891;28;20218;-75
2022/06/02 04:03:50;;;;;;;17.17;15.83;;;;;;;9.09;93.81;100652.59;5051713;28;20233;-75
2022/06/02 04:06:31;;;;;;;19.53;17.40;;;;;;;8.86;95.52;100619.84;5051611;28;20207;-75
2022/06/02 04:09:20;;;;;;;19.97;18.43;;;;;;;8.90;96.30;100608.53;5051684;28;20196;-75
2022/06/02 04:14:53;;;;;;;19.67;17.80;;;;;;;8.99;96.43;100610.16;5051790;28;20272;-75
2022/06/02 04:17:27;;;;;;;20.63;18.83;;;;;;;9.00;96.84;100622.31;5051991;28;20570;-75
2022/06/02 04:23:26;;;;;;;19.77;17.97;;;;;;;9.22;96.28;100642.94;5009774;28;20225;-75
2022/06/02 04:26:02;;;;;;;18.63;17.23;;;;;;;9.33;95.81;100652.34;5047228;28;20205;-75
2022/06/02 04:28:41;;;;;;;19.40;17.77;;;;;;;9.41;94.92;100669.66;5051902;28;20188;-75
2022/06/02 04:31:16;;;;;;;20.87;19.27;;;;;;;9.47;94.57;100680.00;5051194;28;20213;-75
2022/06/02 04:33:51;;;;;;;19.53;17.90;;;;;;;9.50;94.27;100701.69;5055246;28;20190;-75
2022/06/02 04:36:27;;;;;;;21.83;19.90;;;;;;;9.37;94.78;100705.28;5055146;28;20202;-76
2022/06/02 04:39:03;;;;;;;20.70;19.00;;;;;;;9.46;94.56;100696.53;5055515;28;20188;-76
2022/06/02 04:41:38;;;;;;;19.03;17.37;;;;;;;9.46;95.23;100689.56;5055800;28;20261;-76
2022/06/02 04:44:11;;;;;;;19.07;17.60;;;;;;;9.54;95.21;100694.72;5055568;28;20232;-76
2022/06/02 04:46:51;;;;;;;20.33;18.53;;;;;;;9.62;95.18;100700.69;5055872;28;20193;-76
2022/06/02 04:49:26;;;;;;;18.83;17.37;;;;;;;9.66;94.75;100701.53;5055360;28;20213;-76
2022/06/02 04:52:01;;;;;;;20.57;18.70;;;;;;;9.58;94.96;100706.81;5055085;28;20890;-76
2022/06/02 04:54:39;;;;;;;21.13;19.33;;;;;;;9.65;95.29;100700.69;5055532;28;20321;-76
2022/06/02 04:57:17;;;;;;;22.30;20.40;;;;;;;9.67;95.82;100696.31;5055515;28;20191;-76
2022/06/02 04:59:55;;;;;;;20.17;18.47;;;;;;;9.85;95.72;100697.84;5055283;28;20219;-76
2022/06/02 05:02:27;;;;;;;20.83;19.23;;;;;;;10.00;95.42;100712.44;5054932;28;20195;-76
2022/06/02 05:05:16;;;;;;;20.97;19.27;;;;;;;9.96;95.45;100718.56;5055355;28;20232;-76
2022/06/02 05:08:01;;;;;;;21.93;19.97;;;;;;;9.93;95.97;100705.56;5054817;28;20276;-76
2022/06/02 05:10:39;;;;;;;23.37;21.40;;;;;;;9.90;96.27;100708.22;5054781;28;20214;-75
2022/06/02 05:13:15;;;;;;;25.63;23.07;;;;;;;9.95;96.62;100698.59;5055340;28;20251;-75
2022/06/02 05:16:00;;;;;;;22.80;20.67;;;;;;;10.12;96.35;100693.16;5054823;28;20785;-75
2022/06/02 05:18:51;;;;;;;22.90;20.73;;;;;;;10.14;95.81;100705.28;5055294;28;20194;-75
2022/06/02 05:21:40;;;;;;;22.70;20.80;;;;;;;10.07;96.09;100718.44;5054719;28;20247;-75
2022/06/02 05:24:43;;;;;;;27.30;22.43;;;;;;;10.17;96.02;100719.16;5054942;28;20240;-75
2022/06/02 05:27:32;;;;;;;22.57;20.63;;;;;;;10.19;95.85;100727.84;5052411;28;20213;-75
2022/06/02 05:30:12;;;;;;;22.20;20.27;;;;;;;10.23;96.09;100734.78;5045420;28;20206;-75
2022/06/02 05:33:08;;;;;;;21.60;19.97;;;;;;;10.36;96.17;100740.72;5054385;28;20200;-75
2022/06/02 05:36:08;;;;;;;22.33;20.40;;;;;;;10.43;95.94;100748.44;5054042;28;20525;-75
2022/06/02 05:38:54;;;;;;;22.27;20.53;;;;;;;10.27;95.85;100759.94;5054762;28;20207;-75
2022/06/02 05:41:35;;;;;;;23.57;21.57;;;;;;;10.19;96.46;100757.41;5054270;28;20785;-75
2022/06/02 05:44:11;;;;;;;23.60;21.50;;;;;;;10.18;96.59;100755.69;5054030;28;20647;-76
2022/06/02 05:46:59;;;;;;;22.80;20.80;;;;;;;10.18;97.13;100745.25;5054766;28;20277;-76
2022/06/02 05:49:34;;;;;;;21.27;19.50;;;;;;;10.31;97.32;100748.63;5054360;28;20649;-76
2022/06/02 05:52:11;;;;;;;22.13;20.23;;;;;;;10.34;96.34;100753.78;5054135;28;20274;-75
2022/06/02 05:54:48;;;;;;;21.23;19.53;;;;;;;10.27;96.03;100775.59;5054419;28;20781;-76
2022/06/02 05:57:31;;;;;;;22.40;20.50;;;;;;;10.27;96.07;100784.28;5054190;28;20608;-76
2022/06/02 06:00:13;;;;;;;21.67;19.97;;;;;;;10.34;96.96;100775.50;5053941;28;20266;-76
2022/06/02 06:03:21;;;;;;;22.00;20.20;;;;;;;10.52;97.01;100766.59;5054151;28;20221;-75
2022/06/02 06:05:53;;;;;;;20.97;19.17;;;;;;;10.73;96.59;100768.03;5017832;28;20234;-76
2022/06/02 06:08:49;;;;;;;21.87;19.97;;;;;;;10.57;95.64;100804.81;5054139;28;20300;-76
2022/06/02 06:11:28;;;;;;;22.10;20.10;;;;;;;10.75;96.12;100796.75;5052734;28;20207;-75
2022/06/02 06:14:14;;;;;;;21.57;19.87;;;;;;;10.79;94.82;100827.13;5052808;28;20223;-76
2022/06/02 06:16:47;;;;;;;20.37;18.73;;;;;;;10.82;94.39;100834.94;5046722;28;20208;-75
2022/06/02 06:19:34;;;;;;;21.93;20.00;;;;;;;11.00;94.47;100846.88;5043878;28;20686;-75
2022/06/02 06:22:19;;;;;;;19.67;18.17;;;;;;;11.18;94.28;100837.91;5044897;28;20239;-76
2022/06/02 06:25:07;;;;;;;19.10;17.50;;;;;;;11.06;93.13;100883.38;5043499;28;20223;-75
2022/06/02 06:27:39;;;;;;;18.53;17.13;;;;;;;11.21;92.86;100876.19;5044360;28;20246;-75
2022/06/02 06:30:10;;;;;;;19.00;17.60;;;;;;;11.27;93.01;100889.16;5049537;28;20211;-74
2022/06/02 06:32:40;;;;;;;17.00;15.70;;;;;;;11.25;91.68;100917.06;5047975;28;20201;-75
2022/06/02 06:35:23;;;;;;;18.87;17.40;;;;;;;11.17;91.61;100938.06;5042805;28;20213;-75
2022/06/02 06:38:24;;;;;;;17.80;16.40;;;;;;;11.19;91.62;100943.28;5043521;28;20207;-75
2022/06/02 06:41:22;;;;;;;19.13;17.67;;;;;;;11.35;92.23;100918.66;5038515;28;20711;-75
2022/06/02 06:44:03;;;;;;;18.97;17.47;;;;;;;11.29;91.83;100944.88;5045448;28;20228;-75
2022/06/02 06:46:37;;;;;;;19.97;18.30;;;;;;;11.41;92.20;100930.78;5044073;28;20195;-75
2022/06/02 06:49:15;;;;;;;19.03;17.53;;;;;;;11.37;91.75;100927.34;5042324;28;20230;-75
2022/06/02 06:51:55;;;;;;;18.73;17.30;;;;;;;11.44;91.84;100930.75;5044360;28;20204;-75
2022/06/02 06:54:31;;;;;;;17.83;16.43;;;;;;;11.40;90.16;100971.75;5043471;28;20273;-75
2022/06/02 06:57:01;;;;;;;18.50;17.10;;;;;;;11.16;90.32;100974.66;5043355;28;20232;-75
2022/06/02 06:59:46;;;;;;;18.40;17.00;;;;;;;11.41;90.48;100981.31;5045204;28;20203;-75
2022/06/02 07:02:24;;;;;;;16.80;15.60;;;;;;;11.53;90.51;100980.28;5050794;28;20212;-75
2022/06/02 07:05:01;;;;;;;20.03;18.37;;;;;;;11.67;91.01;100962.66;5043236;28;20223;-75
2022/06/02 07:07:36;;;;;;;18.17;16.67;;;;;;;11.68;89.66;100992.28;5043292;28;20207;-75
2022/06/02 07:10:10;;;;;;;18.30;16.90;;;;;;;11.68;90.36;100993.13;5043957;28;20203;-75
2022/06/02 07:12:51;;;;;;;18.77;17.33;;;;;;;11.88;90.21;100992.84;5041556;28;20267;-75
2022/06/02 07:15:27;;;;;;;17.50;16.10;;;;;;;11.92;88.70;101032.94;5041394;28;20222;-75
2022/06/02 07:18:04;;;;;;;18.07;16.73;;;;;;;12.08;88.54;101034.41;5041239;28;20220;-75
2022/06/02 07:20:36;;;;;;;17.23;15.93;;;;;;;12.24;89.31;101027.19;5041539;28;20191;-75
2022/06/02 07:23:10;;;;;;;17.07;15.50;;;;;;;12.34;87.80;101048.84;5043297;28;20190;-75
2022/06/02 07:25:51;;;;;;;16.77;15.23;;;;;;;12.47;86.15;101099.28;5042865;28;20232;-75
2022/06/02 07:28:29;;;;;;;16.30;15.10;;;;;;;12.59;86.61;101112.16;5043063;28;20201;-75
2022/06/02 07:31:04;;;;;;;16.37;15.27;;;;;;;12.71;86.73;101095.38;5050082;28;20665;-75
2022/06/02 07:33:52;;;;;;;16.13;14.93;;;;;;;12.34;85.98;101127.38;5045338;28;20436;-75
2022/06/02 07:36:40;;;;;;;16.13;14.63;;;;;;;12.18;84.93;101145.06;5042958;28;20246;-74
2022/06/02 07:39:42;;;;;;;15.53;14.43;;;;;;;12.25;85.54;101138.88;5044624;28;20208;-75
2022/06/02 07:42:53;;;;;;;15.07;13.87;;;;;;;12.46;85.92;101108.00;5038155;28;20220;-75
2022/06/02 07:45:32;;;;;;;14.57;13.50;;;;;;;12.48;84.01;101159.44;5030491;28;20281;-75
2022/06/02 07:48:35;;;;;;;14.57;13.47;;;;;;;12.57;83.61;101166.31;5045700;28;20584;-75
2022/06/02 07:51:11;;;;;;;13.50;12.37;;;;;;;12.61;83.49;101202.03;5044114;28;20205;-75
2022/06/02 07:53:57;;;;;;;14.20;13.20;;;;;;;12.68;84.21;101174.84;5031916;28;20686;-76
2022/06/02 07:56:31;;;;;;;13.53;12.43;;;;;;;12.85;85.94;101129.19;5039532;28;20221;-76
2022/06/02 07:59:09;;;;;;;14.57;13.57;;;;;;;13.01;85.82;101124.53;5043058;28;20195;-76
2022/06/02 08:02:11;;;;;;;13.27;12.30;;;;;;;13.08;81.97;101216.16;5050398;28;20200;-75
2022/06/02 08:04:46;;;;;;;10.50;9.77;;;;;;;13.01;80.05;101292.28;5042297;28;20222;-76
2022/06/02 08:07:26;;;;;;;10.60;9.80;;;;;;;12.88;79.73;101302.94;5041882;28;20685;-77
2022/06/02 08:10:03;;;;;;;11.40;10.50;;;;;;;13.00;81.40;101274.81;5044725;28;20246;-76
2022/06/02 08:12:39;;;;;;;9.40;8.70;;;;;;;12.87;79.76;101324.78;5042092;28;20677;-77
2022/06/02 08:15:24;;;;;;;9.20;8.60;;;;;;;13.00;79.80;101303.63;5042393;28;20225;-75
2022/06/02 08:17:58;;;;;;;9.63;8.93;;;;;;;13.08;79.34;101331.47;5042179;28;20672;-77
2022/06/02 08:20:47;;;;;;;9.47;8.67;;;;;;;12.78;78.69;101358.09;5041952;28;20227;-76
2022/06/02 08:23:30;;;;;;;8.50;7.90;;;;;;;12.85;79.25;101330.94;5042099;28;20234;-76
2022/06/02 08:26:04;;;;;;;7.40;6.90;;;;;;;12.88;78.95;101346.59;5042374;28;20210;-76
2022/06/02 08:28:44;;;;;;;7.07;6.47;;;;;;;12.67;74.96;101466.53;5040403;28;20735;-76
2022/06/02 08:31:19;;;;;;;6.70;6.27;;;;;;;12.60;73.44;101524.22;5049607;28;20210;-76
2022/06/02 08:33:54;;;;;;;6.83;6.23;;;;;;;12.87;75.05;101491.63;5042761;28;20227;-76
2022/06/02 08:36:27;;;;;;;7.10;6.50;;;;;;;13.00;74.93;101482.75;5039034;28;20581;-75
2022/06/02 08:39:06;;;;;;;6.67;6.27;;;;;;;13.27;75.30;101485.88;5041335;28;20548;-76
2022/06/02 08:42:02;;;;;;;7.80;7.30;;;;;;;13.19;74.35;101496.47;5041706;28;20216;-76
2022/06/02 08:45:01;;;;;;;7.53;6.93;;;;;;;13.07;73.87;101507.13;5041563;28;20258;-76
2022/06/02 08:48:06;;;;;;;6.83;6.33;;;;;;;13.23;73.87;101529.63;5041965;28;20210;-76
2022/06/02 08:50:53;;;;;;;6.63;6.23;;;;;;;13.40;74.35;101515.47;5041632;28;20649;-76
2022/06/02 08:53:53;;;;;;;7.77;7.27;;;;;;;13.40;74.72;101505.84;5041540;28;20531;-76
2022/06/02 08:56:49;;;;;;;7.30;6.60;;;;;;;13.15;73.48;101549.84;5041723;28;20188;-76
2022/06/02 08:59:47;;;;;;;6.87;6.37;;;;;;;13.29;72.36;101582.03;5037237;28;20200;-76
2022/06/02 09:02:37;;;;;;;7.00;6.33;;;;;;;13.57;72.40;101562.47;5049013;28;20207;-76
2022/06/02 09:05:35;;;;;;;6.00;5.60;;;;;;;13.67;69.82;101616.53;5041930;28;20275;-76
2022/06/02 09:08:40;;;;;;;7.47;6.90;;;;;;;13.53;71.94;101597.50;5041519;28;20202;-76
2022/06/02 09:11:42;;;;;;;7.50;7.00;;;;;;;13.49;72.89;101558.16;5040585;28;20208;-76
2022/06/02 09:14:33;;;;;;;6.73;6.33;;;;;;;13.46;72.67;101550.38;5041652;28;20309;-76
2022/06/02 09:17:08;;;;;;;6.00;5.63;;;;;;;13.53;71.68;101595.72;5042347;28;20667;-76
2022/06/02 09:19:39;;;;;;;6.30;5.90;;;;;;;13.65;70.62;101615.69;5042439;28;20207;-76
2022/06/02 09:22:32;;;;;;;4.90;4.60;;;;;;;13.73;67.85;101683.84;5045268;28;20206;-76
2022/06/02 09:25:07;;;;;;;4.87;4.57;;;;;;;13.98;68.56;101681.78;5045159;28;20230;-76
2022/06/02 09:28:09;;;;;;;5.00;4.70;;;;;;;13.72;68.25;101698.72;5045500;28;20686;-76
2022/06/02 09:30:48;;;;;;;4.57;4.27;;;;;;;13.65;67.75;101700.53;5050459;28;20617;-76
2022/06/02 09:33:37;;;;;;;4.93;4.53;;;;;;;13.85;67.63;101713.41;5048014;28;20215;-76
2022/06/02 09:36:38;;;;;;;5.37;4.23;;;;;;;13.76;65.62;101760.78;5045256;28;20211;-76
2022/06/02 09:39:22;;;;;;;4.30;4.00;;;;;;;13.98;66.62;101768.41;5044390;28;20208;-76
2022/06/02 09:42:06;;;;;;;3.97;3.77;;;;;;;14.13;68.31;101735.84;5044674;28;20739;-76
2022/06/02 09:44:45;;;;;;;5.00;4.70;;;;;;;13.86;66.16;101758.91;5044905;28;20290;-76
2022/06/02 09:47:58;;;;;;;4.20;3.90;;;;;;;13.90;65.58;101789.50;5044773;28;20738;-76
2022/06/02 09:50:55;;;;;;;5.10;4.70;;;;;;;14.10;66.90;101755.13;4989611;28;20196;-76
2022/06/02 09:53:49;;;;;;;4.50;4.20;;;;;;;14.12;64.13;101778.75;5041266;28;20257;-76
2022/06/02 09:56:35;;;;;;;4.50;4.20;;;;;;;14.01;64.43;101815.63;5044619;28;20262;-76
2022/06/02 09:59:17;;;;;;;4.23;3.93;;;;;;;14.29;65.39;101809.16;5045662;28;20255;-76
2022/06/02 10:01:56;;;;;;;5.23;4.90;;;;;;;14.33;64.01;101812.63;5051368;28;20222;-76
2022/06/02 10:04:40;;;;;;;2.93;2.73;;;;;;;14.11;60.60;101882.88;5044285;28;20243;-76
2022/06/02 10:07:18;;;;;;;3.75;3.50;;;;;;;14.22;62.44;101915.19;5044105;28;20436;-76
2022/06/02 10:10:22;;;;;;;3.50;3.30;;;;;;;14.46;65.31;101876.38;5044018;28;20610;-76
2022/06/02 10:13:07;;;;;;;4.17;3.87;;;;;;;14.64;63.43;101867.44;5044445;28;20206;-76
2022/06/02 10:15:49;;;;;;;4.10;3.80;;;;;;;14.60;61.06;101887.63;5047111;28;20224;-76
2022/06/02 10:18:35;;;;;;;3.97;3.63;;;;;;;14.68;61.24;101906.78;5044122;28;20228;-76
2022/06/02 10:21:13;;;;;;;4.03;3.73;;;;;;;14.87;62.05;101910.06;5044787;28;20284;-75
2022/06/02 10:24:16;;;;;;;3.97;3.67;;;;;;;14.88;62.09;101892.53;5041633;28;20195;-76
2022/06/02 10:27:01;;;;;;;4.00;3.70;;;;;;;14.84;62.97;101868.03;5044233;28;20227;-76
2022/06/02 10:29:59;;;;;;;4.90;4.23;;;;;;;14.92;61.22;101860.03;5045103;28;20732;-76
2022/06/02 10:33:04;;;;;;;5.03;3.10;;;;;;;14.74;61.19;101950.53;5051425;28;20572;-76
2022/06/02 10:35:58;;;;;;;3.23;3.03;;;;;;;15.05;60.89;101937.88;5053333;28;20217;-76
2022/06/02 10:38:27;;;;;;;3.60;3.30;;;;;;;15.29;59.29;101941.91;5053314;28;20211;-76
2022/06/02 10:41:28;;;;;;;3.90;3.60;;;;;;;15.18;58.68;101967.53;5052664;28;20205;-76
2022/06/02 10:44:11;;;;;;;3.40;3.10;;;;;;;15.31;59.60;101970.00;5053343;28;20228;-76
2022/06/02 10:47:11;;;;;;;2.97;2.77;;;;;;;15.66;59.58;101951.91;5052859;28;20767;-76
2022/06/02 10:49:45;;;;;;;2.67;2.47;;;;;;;15.58;56.16;101950.25;5053250;28;20193;-76
2022/06/02 10:52:48;;;;;;;2.80;2.60;;;;;;;15.62;59.41;102009.91;5052897;28;20209;-76
2022/06/02 10:55:43;;;;;;;3.10;2.90;;;;;;;15.95;58.00;101984.81;5053203;28;20734;-76
2022/06/02 10:58:39;;;;;;;2.63;2.53;;;;;;;15.98;54.75;101974.25;5052830;28;20523;-76
2022/06/02 11:01:51;;;;;;;2.57;2.47;;;;;;;15.72;53.27;102023.75;5052677;28;20288;-76
2022/06/02 11:04:57;;;;;;;2.00;1.80;;;;;;;15.93;54.50;102099.84;5032769;28;20230;-78
2022/06/02 11:07:54;;;;;;;2.37;2.00;;;;;;;15.69;54.44;102109.78;5032528;28;20210;-76
2022/06/02 11:10:25;;;;;;;1.93;1.80;;;;;;;16.02;53.78;102072.53;5010135;28;20213;-76
2022/06/02 11:13:16;;;;;;;2.23;2.00;;;;;;;16.19;54.31;102127.56;5032871;28;20210;-76
2022/06/02 11:16:07;;;;;;;3.30;2.17;;;;;;;16.27;53.74;102112.50;5032848;28;20279;-76
2022/06/02 11:19:04;;;;;;;2.00;1.90;;;;;;;16.25;52.73;102103.75;5032909;28;20195;-76
2022/06/02 11:22:05;;;;;;;2.20;2.10;;;;;;;16.52;52.58;102134.06;5010686;28;20210;-75
2022/06/02 11:25:07;;;;;;;1.37;1.27;;;;;;;16.85;50.96;102137.06;5032459;28;20226;-76
2022/06/02 11:28:00;;;;;;;1.70;1.60;;;;;;;16.94;51.32;102152.72;5032512;28;20210;-76
2022/06/02 11:30:48;;;;;;;2.40;2.20;;;;;;;17.17;50.95;102125.91;5045637;28;20210;-76
2022/06/02 11:33:32;;;;;;;1.67;1.57;;;;;;;17.59;48.32;102197.25;5052295;28;20683;-76
2022/06/02 11:36:40;;;;;;;1.50;1.43;;;;;;;18.28;46.71;102221.38;5052651;28;20268;-76
2022/06/02 11:39:43;;;;;;;1.37;1.30;;;;;;;19.52;46.65;102261.53;5035647;28;20264;-77
2022/06/02 11:42:30;;;;;;;1.77;1.67;;;;;;;18.65;46.98;102294.56;5052140;28;20221;-77
2022/06/02 11:45:09;;;;;;;1.80;1.70;;;;;;;18.10;48.41;102258.78;5052103;28;20265;-76
2022/06/02 11:48:02;;;;;;;1.93;1.70;;;;;;;17.79;48.97;102196.81;5052167;28;20199;-76
2022/06/02 11:50:57;;;;;;;1.93;1.83;;;;;;;17.96;50.63;102161.31;5051902;28;20252;-76
2022/06/02 11:53:52;;;;;;;2.63;1.70;;;;;;;18.94;49.16;102161.59;5052241;28;20195;-76
2022/06/02 11:56:34;;;;;;;1.90;1.77;;;;;;;19.76;46.57;102189.38;5051975;28;20249;-77
2022/06/02 11:59:36;;;;;;;2.30;2.13;;;;;;;19.71;44.50;102193.03;5051764;28;20211;-77
2022/06/02 12:02:21;;;;;;;2.13;1.93;;;;;;;18.47;46.13;102277.34;5046003;28;20258;-77
2022/06/02 12:05:25;;;;;;;2.17;2.00;;;;;;;18.62;48.63;102220.56;5051965;28;20217;-76
2022/06/02 12:08:38;;;;;;;2.53;2.23;;;;;;;17.53;50.63;102178.03;4682067;28;10001183;-76
2022/06/02 12:11:43;;;;;;;2.40;2.30;;;;;;;17.12;48.97;102090.81;5029031;28;20211;-76
2022/06/02 12:14:35;;;;;;;3.17;1.90;;;;;;;17.20;51.24;102103.88;5029189;28;20229;-76
2022/06/02 12:17:24;;;;;;;2.60;2.17;;;;;;;17.64;50.49;102099.41;5026336;28;20252;-76
2022/06/02 12:20:15;;;;;;;2.10;2.00;;;;;;;17.64;50.18;102099.41;5028868;28;20202;-76
2022/06/02 12:23:00;;;;;;;3.00;2.80;;;;;;;17.80;51.10;102068.25;5028484;28;20207;-76
2022/06/02 12:25:49;;;;;;;2.50;2.30;;;;;;;18.85;50.14;102091.25;5028992;28;20230;-76
2022/06/02 12:28:51;;;;;;;2.07;1.97;;;;;;;19.18;47.41;102117.69;5028960;28;20211;-76
2022/06/02 12:31:51;;;;;;;2.27;1.97;;;;;;;18.75;46.44;102189.38;5044941;28;20202;-76
2022/06/02 12:34:59;;;;;;;2.00;1.80;;;;;;;18.39;48.20;102194.66;5028616;28;20231;-76
2022/06/02 12:37:46;;;;;;;2.30;2.10;;;;;;;18.54;48.02;102175.78;4989207;28;20216;-76
2022/06/02 12:40:31;;;;;;;2.47;2.27;;;;;;;18.15;49.25;102167.03;5028389;28;20196;-76
2022/06/02 12:43:30;;;;;;;2.23;2.00;;;;;;;18.94;50.95;102113.94;5027439;28;20925;-76
2022/06/02 12:46:17;;;;;;;2.00;1.90;;;;;;;19.14;45.11;102078.97;5028754;28;20223;-77
2022/06/02 12:49:10;;;;;;;2.13;1.93;;;;;;;18.78;46.83;102169.03;5028564;28;20204;-76